createdAt,value
2022-10-09T00:01:17.269Z,4.94
2022-10-09T00:03:45.786Z,4.96
2022-10-09T00:06:15.423Z,5.21
2022-10-09T00:08:45.260Z,5.17
2022-10-09T00:11:23.478Z,4.80
2022-10-09T00:13:51.441Z,4.65
2022-10-09T00:16:20.183Z,4.86
2022-10-09T00:18:47.724Z,4.74
2022-10-09T00:21:20.330Z,4.90
2022-10-09T00:23:47.205Z,4.83
2022-10-09T00:26:14.014Z,4.27
2022-10-09T00:28:40.667Z,4.63
2022-10-09T00:31:09.387Z,4.74
2022-10-09T00:33:36.775Z,4.72
2022-10-09T00:36:04.890Z,4.60
2022-10-09T00:38:31.388Z,4.35
2022-10-09T00:40:57.725Z,4.68
2022-10-09T00:43:49.794Z,4.67
2022-10-09T00:46:25.235Z,4.68
2022-10-09T00:49:00.829Z,4.68
2022-10-09T00:51:29.330Z,4.65
2022-10-09T00:53:56.433Z,4.24
2022-10-09T00:56:24.434Z,4.60
2022-10-09T00:58:53.717Z,4.45
2022-10-09T01:01:20.312Z,4.56
2022-10-09T01:03:46.782Z,4.48
2022-10-09T01:06:27.085Z,4.28
2022-10-09T01:09:10.218Z,4.49
2022-10-09T01:11:48.933Z,3.87
2022-10-09T01:14:28.477Z,4.43
2022-10-09T01:17:10.649Z,4.38
2022-10-09T01:19:55.572Z,4.36
2022-10-09T01:22:47.821Z,4.25
2022-10-09T01:25:35.532Z,4.33
2022-10-09T01:28:05.122Z,4.20
2022-10-09T01:30:32.921Z,4.08
2022-10-09T01:32:59.436Z,4.23
2022-10-09T01:35:26.461Z,4.18
2022-10-09T01:37:54.698Z,4.06
2022-10-09T01:40:23.071Z,4.18
2022-10-09T01:42:49.696Z,3.68
2022-10-09T01:45:16.411Z,3.94
2022-10-09T01:47:43.269Z,4.13
2022-10-09T01:50:30.327Z,4.12
2022-10-09T01:53:04.785Z,3.94
2022-10-09T01:55:36.935Z,4.14
2022-10-09T01:58:13.355Z,3.98
2022-10-09T02:00:44.916Z,3.95
2022-10-09T02:03:15.144Z,3.68
2022-10-09T02:05:42.662Z,4.13
2022-10-09T02:08:12.341Z,4.18
2022-10-09T02:10:41.996Z,4.18
2022-10-09T02:13:08.583Z,4.17
2022-10-09T02:15:43.846Z,4.15
2022-10-09T02:18:13.149Z,3.99
2022-10-09T02:20:44.893Z,4.15
2022-10-09T02:23:11.777Z,3.85
2022-10-09T02:25:38.785Z,4.12
2022-10-09T02:28:07.019Z,4.07
2022-10-09T02:30:43.902Z,4.02
2022-10-09T02:33:10.250Z,4.05
2022-10-09T02:35:38.154Z,4.14
2022-10-09T02:38:04.464Z,4.23
2022-10-09T02:40:30.806Z,4.22
2022-10-09T02:42:57.268Z,4.16
2022-10-09T02:45:23.629Z,4.19
2022-10-09T02:47:50.050Z,4.14
2022-10-09T02:50:16.373Z,4.17
2022-10-09T02:52:42.702Z,4.14
2022-10-09T02:55:09.236Z,3.65
2022-10-09T02:57:35.549Z,4.13
2022-10-09T03:00:01.832Z,3.95
2022-10-09T03:02:28.277Z,4.10
2022-10-09T03:04:54.827Z,4.18
2022-10-09T03:07:21.116Z,3.75
2022-10-09T03:09:47.490Z,3.87
2022-10-09T03:12:16.025Z,3.82
2022-10-09T03:14:42.317Z,4.25
2022-10-09T03:17:08.608Z,4.22
2022-10-09T03:19:34.926Z,4.04
2022-10-09T03:22:01.242Z,4.23
2022-10-09T03:24:27.574Z,3.95
2022-10-09T03:26:53.892Z,3.67
2022-10-09T03:29:20.323Z,3.94
2022-10-09T03:31:52.209Z,4.02
2022-10-09T03:34:19.074Z,4.14
2022-10-09T03:36:45.430Z,3.69
2022-10-09T03:39:11.772Z,4.10
2022-10-09T03:41:38.086Z,4.08
2022-10-09T03:44:04.590Z,3.70
2022-10-09T03:46:30.980Z,4.06
2022-10-09T03:48:57.321Z,3.80
2022-10-09T03:51:23.702Z,3.92
2022-10-09T03:53:50.057Z,4.05
2022-10-09T03:56:16.410Z,4.04
2022-10-09T03:58:42.733Z,4.00
2022-10-09T04:01:09.438Z,3.89
2022-10-09T04:03:35.813Z,3.58
2022-10-09T04:06:02.147Z,3.71
2022-10-09T04:08:28.455Z,3.54
2022-10-09T04:10:58.790Z,3.87
2022-10-09T04:13:25.337Z,3.36
2022-10-09T04:15:55.928Z,3.52
2022-10-09T04:18:22.572Z,3.16
2022-10-09T04:20:51.177Z,3.82
2022-10-09T04:23:18.705Z,3.82
2022-10-09T04:25:45.783Z,3.92
2022-10-09T04:28:12.577Z,3.89
2022-10-09T04:30:39.078Z,3.51
2022-10-09T04:33:10.350Z,3.62
2022-10-09T04:35:49.093Z,3.79
2022-10-09T04:38:15.488Z,3.77
2022-10-09T04:40:41.810Z,3.76
2022-10-09T04:43:08.361Z,2.53
2022-10-09T04:45:39.568Z,3.69
2022-10-09T04:48:05.953Z,3.23
2022-10-09T04:50:32.328Z,3.71
2022-10-09T04:52:58.708Z,3.64
2022-10-09T04:55:25.462Z,3.58
2022-10-09T04:57:51.800Z,3.26
2022-10-09T05:00:18.238Z,3.53
2022-10-09T05:02:44.552Z,3.47
2022-10-09T05:05:10.890Z,3.55
2022-10-09T05:07:38.430Z,3.46
2022-10-09T05:10:06.001Z,3.60
2022-10-09T05:12:32.305Z,3.35
2022-10-09T05:14:58.609Z,3.59
2022-10-09T05:17:24.993Z,3.59
2022-10-09T05:19:51.381Z,3.63
2022-10-09T05:22:17.697Z,3.37
2022-10-09T05:24:43.981Z,3.37
2022-10-09T05:27:10.322Z,3.50
2022-10-09T05:29:36.651Z,3.33
2022-10-09T05:32:03.206Z,3.39
2022-10-09T05:34:29.586Z,3.69
2022-10-09T05:36:55.911Z,3.71
2022-10-09T05:39:22.238Z,2.65
2022-10-09T05:41:48.549Z,3.66
2022-10-09T05:44:14.872Z,3.09
2022-10-09T05:46:41.237Z,3.63
2022-10-09T05:49:07.638Z,3.62
2022-10-09T05:51:37.157Z,3.62
2022-10-09T05:54:04.813Z,3.63
2022-10-09T05:56:33.732Z,3.44
2022-10-09T05:59:01.675Z,3.26
2022-10-09T06:01:31.710Z,3.69
2022-10-09T06:03:59.478Z,3.70
2022-10-09T06:06:28.976Z,3.55
2022-10-09T06:08:55.645Z,3.74
2022-10-09T06:11:23.271Z,3.59
2022-10-09T06:13:51.088Z,3.77
2022-10-09T06:16:18.030Z,3.89
2022-10-09T06:18:49.295Z,3.74
2022-10-09T06:21:16.700Z,3.98
2022-10-09T06:23:43.089Z,3.83
2022-10-09T06:26:12.051Z,3.75
2022-10-09T06:28:38.736Z,4.13
2022-10-09T06:31:08.839Z,4.18
2022-10-09T06:33:37.565Z,4.25
2022-10-09T06:36:10.221Z,4.27
2022-10-09T06:38:37.572Z,4.32
2022-10-09T06:41:06.191Z,4.38
2022-10-09T06:43:33.169Z,4.03
2022-10-09T06:46:18.793Z,3.49
2022-10-09T06:48:45.271Z,4.65
2022-10-09T06:51:14.781Z,4.40
2022-10-09T06:53:43.876Z,4.87
2022-10-09T06:56:11.209Z,4.65
2022-10-09T06:58:38.677Z,5.02
2022-10-09T07:01:11.263Z,5.14
2022-10-09T07:03:38.676Z,5.25
2022-10-09T07:06:06.991Z,4.90
2022-10-09T07:08:33.681Z,5.49
2022-10-09T07:11:00.122Z,5.59
2022-10-09T07:13:26.461Z,5.71
2022-10-09T07:15:52.832Z,5.82
2022-10-09T07:18:19.200Z,5.96
2022-10-09T07:20:45.559Z,5.97
2022-10-09T07:23:11.877Z,6.18
2022-10-09T07:25:38.528Z,6.31
2022-10-09T07:28:04.890Z,6.08
2022-10-09T07:30:31.310Z,6.56
2022-10-09T07:32:57.639Z,6.70
2022-10-09T07:35:23.946Z,6.65
2022-10-09T07:37:51.407Z,6.87
2022-10-09T07:40:17.766Z,6.92
2022-10-09T07:42:44.061Z,7.05
2022-10-09T07:45:10.556Z,7.16
2022-10-09T07:47:36.881Z,7.31
2022-10-09T07:50:03.385Z,7.09
2022-10-09T07:52:29.797Z,7.15
2022-10-09T07:54:56.109Z,7.65
2022-10-09T07:57:22.451Z,7.52
2022-10-09T07:59:48.782Z,7.85
2022-10-09T08:02:15.138Z,8.02
2022-10-09T08:04:41.468Z,7.87
2022-10-09T08:07:07.786Z,8.15
2022-10-09T08:09:34.101Z,8.33
2022-10-09T08:12:00.427Z,8.45
2022-10-09T08:14:26.816Z,8.61
2022-10-09T08:16:53.333Z,8.73
2022-10-09T08:19:19.664Z,8.73
2022-10-09T08:21:46.125Z,8.71
2022-10-09T08:24:13.069Z,8.98
2022-10-09T08:26:39.381Z,9.07
2022-10-09T08:29:08.252Z,8.75
2022-10-09T08:31:34.701Z,9.38
2022-10-09T08:34:02.922Z,9.52
2022-10-09T08:36:30.277Z,9.66
2022-10-09T08:38:56.607Z,9.81
2022-10-09T08:41:28.706Z,9.92
2022-10-09T08:44:20.307Z,9.94
2022-10-09T08:46:57.248Z,10.11
2022-10-09T08:49:26.426Z,9.53
2022-10-09T08:51:56.418Z,10.41
2022-10-09T08:54:41.126Z,10.58
2022-10-09T08:57:16.421Z,10.65
2022-10-09T08:59:44.061Z,10.86
2022-10-09T09:02:41.105Z,11.04
2022-10-09T09:05:19.206Z,11.14
2022-10-09T09:07:59.968Z,11.25
2022-10-09T09:10:33.468Z,11.33
2022-10-09T09:13:37.705Z,11.37
2022-10-09T09:16:04.030Z,11.57
2022-10-09T09:19:07.711Z,11.65
2022-10-09T09:21:47.267Z,11.48
2022-10-09T09:24:42.134Z,11.78
2022-10-09T09:27:16.001Z,11.68
2022-10-09T09:30:01.664Z,11.90
2022-10-09T09:32:30.805Z,12.17
2022-10-09T09:35:08.081Z,12.50
2022-10-09T09:37:34.599Z,12.63
2022-10-09T09:42:47.649Z,12.72
2022-10-09T09:45:21.755Z,12.78
2022-10-09T09:48:13.063Z,13.00
2022-10-09T09:50:50.568Z,12.14
2022-10-09T09:53:34.472Z,13.24
2022-10-09T09:56:01.159Z,12.82
2022-10-09T09:58:34.709Z,12.71
2022-10-09T10:01:03.175Z,13.36
2022-10-09T10:03:31.002Z,13.49
2022-10-09T10:05:57.597Z,13.45
2022-10-09T10:08:28.037Z,13.65
2022-10-09T10:10:58.690Z,13.27
2022-10-09T10:13:33.668Z,13.89
2022-10-09T10:16:00.438Z,14.04
2022-10-09T10:18:32.281Z,13.96
2022-10-09T10:21:12.838Z,13.57
2022-10-09T10:23:53.299Z,13.58
2022-10-09T10:26:28.855Z,14.23
2022-10-09T10:29:09.675Z,14.32
2022-10-09T10:31:45.707Z,14.20
2022-10-09T10:34:23.042Z,14.43
2022-10-09T10:37:01.066Z,13.89
2022-10-09T10:40:07.349Z,14.66
2022-10-09T10:42:57.344Z,13.85
2022-10-09T10:45:43.982Z,14.89
2022-10-09T10:48:19.541Z,14.59
2022-10-09T10:51:01.778Z,15.05
2022-10-09T10:53:40.267Z,15.12
2022-10-09T10:56:14.501Z,15.30
2022-10-09T10:59:04.634Z,15.48
2022-10-09T11:01:45.567Z,15.49
2022-10-09T11:04:33.606Z,15.60
2022-10-09T11:07:22.510Z,15.40
2022-10-09T11:10:18.299Z,15.30
2022-10-09T11:12:48.452Z,15.73
2022-10-09T11:15:31.370Z,15.58
2022-10-09T11:18:24.278Z,15.90
2022-10-09T11:21:02.699Z,16.14
2022-10-09T11:23:43.054Z,15.86
2022-10-09T11:26:15.104Z,16.23
2022-10-09T11:29:04.712Z,15.55
2022-10-09T11:31:40.147Z,15.79
2022-10-09T11:34:14.198Z,15.78
2022-10-09T11:36:43.054Z,16.38
2022-10-09T11:39:19.668Z,16.42
2022-10-09T11:41:48.068Z,15.84
2022-10-09T11:44:26.289Z,16.11
2022-10-09T11:47:11.415Z,16.69
2022-10-09T11:49:55.841Z,16.67
2022-10-09T11:52:39.377Z,16.30
2022-10-09T11:55:18.263Z,16.33
2022-10-09T11:57:44.746Z,16.00
2022-10-09T12:00:11.565Z,16.61
2022-10-09T12:02:38.701Z,17.00
2022-10-09T12:05:34.884Z,17.05
2022-10-09T12:08:15.456Z,17.15
2022-10-09T12:10:54.884Z,17.23
2022-10-09T12:13:58.230Z,16.53
2022-10-09T12:16:39.006Z,17.33
2022-10-09T12:19:34.615Z,17.31
2022-10-09T12:22:06.522Z,17.43
2022-10-09T12:24:43.530Z,17.52
2022-10-09T12:27:20.933Z,17.36
2022-10-09T12:29:54.718Z,17.40
2022-10-09T12:32:31.310Z,17.28
2022-10-09T12:34:58.100Z,17.48
2022-10-09T12:37:34.962Z,17.54
2022-10-09T12:40:22.156Z,17.49
2022-10-09T12:42:52.263Z,17.65
2022-10-09T12:45:29.845Z,17.45
2022-10-09T12:47:59.267Z,17.73
2022-10-09T12:50:33.259Z,17.65
2022-10-09T12:53:05.748Z,17.85
2022-10-09T12:55:40.651Z,17.48
2022-10-09T12:58:26.935Z,17.79
2022-10-09T13:00:56.534Z,17.51
2022-10-09T13:03:33.006Z,17.50
2022-10-09T13:06:00.204Z,17.26
2022-10-09T13:08:38.355Z,17.44
2022-10-09T13:11:29.032Z,17.68
2022-10-09T13:13:55.950Z,17.81
2022-10-09T13:16:24.318Z,17.59
2022-10-09T13:19:01.213Z,17.50
2022-10-09T13:21:35.163Z,17.98
2022-10-09T13:24:13.203Z,17.97
2022-10-09T13:26:42.423Z,17.96
2022-10-09T13:29:08.908Z,17.72
2022-10-09T13:31:36.890Z,17.55
2022-10-09T13:34:11.980Z,17.40
2022-10-09T13:36:38.431Z,16.83
2022-10-09T13:39:05.303Z,17.49
2022-10-09T13:41:32.578Z,17.24
2022-10-09T13:43:59.092Z,17.39
2022-10-09T13:46:25.428Z,17.29
2022-10-09T13:48:51.768Z,17.48
2022-10-09T13:51:18.141Z,17.58
2022-10-09T13:53:44.465Z,17.68
2022-10-09T13:56:10.924Z,17.67
2022-10-09T13:58:37.276Z,17.89
2022-10-09T14:01:04.029Z,17.21
2022-10-09T14:03:30.441Z,17.39
2022-10-09T14:06:01.230Z,17.61
2022-10-09T14:08:27.537Z,17.17
2022-10-09T14:10:54.338Z,17.19
2022-10-09T14:13:21.730Z,17.59
2022-10-09T14:15:48.390Z,17.42
2022-10-09T14:18:14.759Z,17.51
2022-10-09T14:20:41.120Z,16.56
2022-10-09T14:23:07.432Z,17.20
2022-10-09T14:25:34.452Z,17.28
2022-10-09T14:28:00.813Z,17.39
2022-10-09T14:30:27.512Z,16.27
2022-10-09T14:32:55.199Z,16.60
2022-10-09T14:35:21.884Z,16.94
2022-10-09T14:37:48.281Z,16.85
2022-10-09T14:40:14.952Z,16.84
2022-10-09T14:42:41.532Z,16.71
2022-10-09T14:45:09.049Z,16.45
2022-10-09T14:47:35.590Z,16.93
2022-10-09T14:50:01.939Z,16.61
2022-10-09T14:52:28.276Z,16.69
2022-10-09T14:54:54.589Z,16.23
2022-10-09T14:57:20.895Z,16.25
2022-10-09T14:59:47.196Z,16.41
2022-10-09T15:02:15.450Z,16.60
2022-10-09T15:04:42.001Z,16.07
2022-10-09T15:07:08.351Z,16.35
2022-10-09T15:09:34.655Z,16.02
2022-10-09T15:12:00.965Z,16.05
2022-10-09T15:14:27.333Z,15.89
2022-10-09T15:16:53.670Z,15.74
2022-10-09T15:19:20.327Z,15.77
2022-10-09T15:21:46.764Z,15.55
2022-10-09T15:24:13.289Z,15.66
2022-10-09T15:26:39.736Z,16.03
2022-10-09T15:29:10.366Z,15.79
2022-10-09T15:31:39.337Z,15.92
2022-10-09T15:34:07.646Z,15.87
2022-10-09T15:36:37.796Z,15.83
2022-10-09T15:39:08.730Z,15.76
2022-10-09T15:41:37.475Z,15.07
2022-10-09T15:44:22.822Z,15.42
2022-10-09T15:46:49.678Z,15.41
2022-10-09T15:49:16.419Z,14.98
2022-10-09T15:51:42.917Z,14.88
2022-10-09T15:54:11.228Z,14.96
2022-10-09T15:56:40.138Z,15.13
2022-10-09T15:59:07.338Z,15.05
2022-10-09T16:01:33.753Z,14.96
2022-10-09T16:04:00.108Z,14.88
2022-10-09T16:06:26.478Z,14.87
2022-10-09T16:08:56.758Z,14.82
2022-10-09T16:11:26.264Z,14.17
2022-10-09T16:13:53.962Z,14.23
2022-10-09T16:16:23.430Z,13.48
2022-10-09T16:18:54.945Z,14.56
2022-10-09T16:21:26.872Z,14.49
2022-10-09T16:23:58.442Z,13.96
2022-10-09T16:26:26.627Z,14.50
2022-10-09T16:28:53.072Z,14.14
2022-10-09T16:31:25.921Z,14.30
2022-10-09T16:33:52.813Z,14.02
2022-10-09T16:36:20.460Z,14.05
2022-10-09T16:38:47.323Z,14.28
2022-10-09T16:41:17.716Z,14.01
2022-10-09T16:43:45.869Z,13.85
2022-10-09T16:46:17.529Z,14.01
2022-10-09T16:48:44.053Z,13.56
2022-10-09T16:51:12.857Z,13.74
2022-10-09T16:53:40.191Z,13.76
2022-10-09T16:56:11.835Z,12.78
2022-10-09T16:58:39.364Z,13.65
2022-10-09T17:01:09.875Z,13.56
2022-10-09T17:03:40.226Z,13.32
2022-10-09T17:06:11.740Z,12.82
2022-10-09T17:08:38.310Z,12.75
2022-10-09T17:11:09.340Z,12.82
2022-10-09T17:13:36.507Z,12.89
2022-10-09T17:16:07.726Z,11.95
2022-10-09T17:18:35.509Z,12.57
2022-10-09T17:21:06.371Z,12.14
2022-10-09T17:23:33.316Z,12.29
2022-10-09T17:26:04.151Z,11.81
2022-10-09T17:28:30.604Z,12.36
2022-10-09T17:30:57.254Z,12.55
2022-10-09T17:33:23.558Z,12.42
2022-10-09T17:35:49.864Z,11.97
2022-10-09T17:38:18.563Z,12.29
2022-10-09T17:40:44.905Z,12.01
2022-10-09T17:43:11.290Z,11.92
2022-10-09T17:45:39.472Z,12.17
2022-10-09T17:48:06.908Z,12.23
2022-10-09T17:50:33.407Z,12.18
2022-10-09T17:53:00.492Z,11.78
2022-10-09T17:55:27.539Z,12.06
2022-10-09T17:57:55.082Z,11.87
2022-10-09T18:00:22.142Z,11.86
2022-10-09T18:02:49.145Z,11.00
2022-10-09T18:05:15.468Z,11.37
2022-10-09T18:07:41.839Z,11.07
2022-10-09T18:10:08.869Z,11.17
2022-10-09T18:12:35.185Z,10.96
2022-10-09T18:15:02.782Z,11.25
2022-10-09T18:17:31.606Z,11.07
2022-10-09T18:19:58.009Z,10.65
2022-10-09T18:22:24.322Z,10.60
2022-10-09T18:24:50.712Z,9.75
2022-10-09T18:27:17.140Z,10.03
2022-10-09T18:29:43.498Z,9.97
2022-10-09T18:32:09.814Z,10.59
2022-10-09T18:34:39.373Z,10.92
2022-10-09T18:37:06.591Z,10.65
2022-10-09T18:39:33.321Z,10.27
2022-10-09T18:42:02.004Z,10.56
2022-10-09T18:44:39.958Z,9.96
2022-10-09T18:47:11.686Z,9.57
2022-10-09T18:49:43.329Z,10.57
2022-10-09T18:52:11.233Z,10.03
2022-10-09T18:54:39.024Z,9.81
2022-10-09T18:57:05.934Z,9.55
2022-10-09T18:59:35.658Z,9.82
2022-10-09T19:02:02.013Z,9.91
2022-10-09T19:04:28.475Z,10.05
2022-10-09T19:06:55.112Z,9.88
2022-10-09T19:09:23.921Z,9.38
2022-10-09T19:11:52.517Z,8.45
2022-10-09T19:14:19.155Z,9.92
2022-10-09T19:16:45.589Z,8.98
2022-10-09T19:19:12.130Z,9.58
2022-10-09T19:21:44.910Z,9.21
2022-10-09T19:24:12.225Z,9.77
2022-10-09T19:26:40.095Z,9.33
2022-10-09T19:29:07.656Z,8.76
2022-10-09T19:31:35.474Z,9.15
2022-10-09T19:34:04.068Z,9.79
2022-10-09T19:36:34.993Z,9.35
2022-10-09T19:39:01.990Z,9.25
2022-10-09T19:41:28.561Z,9.21
2022-10-09T19:43:54.878Z,9.30
2022-10-09T19:46:22.607Z,9.27
2022-10-09T19:48:52.702Z,8.26
2022-10-09T19:51:25.545Z,9.45
2022-10-09T19:53:53.395Z,8.34
2022-10-09T19:56:22.928Z,9.35
2022-10-09T19:58:49.890Z,9.04
2022-10-09T20:01:21.608Z,9.36
2022-10-09T20:03:53.423Z,9.30
2022-10-09T20:06:19.856Z,8.42
2022-10-09T20:08:48.706Z,7.93
2022-10-09T20:11:15.047Z,9.17
2022-10-09T20:13:42.945Z,8.75
2022-10-09T20:16:12.228Z,8.49
2022-10-09T20:18:42.505Z,8.83
2022-10-09T20:21:13.254Z,9.09
2022-10-09T20:23:41.314Z,7.92
2022-10-09T20:26:11.617Z,8.78
2022-10-09T20:28:38.703Z,8.62
2022-10-09T20:31:07.830Z,8.78
2022-10-09T20:33:35.523Z,8.11
2022-10-09T20:36:02.913Z,9.03
2022-10-09T20:38:29.323Z,8.41
2022-10-09T20:41:03.782Z,9.02
2022-10-09T20:43:30.273Z,8.33
2022-10-09T20:45:56.597Z,7.45
2022-10-09T20:48:23.061Z,7.97
2022-10-09T20:50:49.394Z,8.65
2022-10-09T20:53:16.707Z,8.71
2022-10-09T20:55:43.162Z,8.10
2022-10-09T20:58:09.496Z,7.28
2022-10-09T21:00:41.400Z,7.42
2022-10-09T21:03:12.171Z,8.49
2022-10-09T21:05:43.301Z,8.12
2022-10-09T21:08:09.969Z,7.96
2022-10-09T21:10:42.873Z,8.05
2022-10-09T21:13:09.496Z,7.97
2022-10-09T21:15:43.587Z,7.02
2022-10-09T21:18:10.863Z,7.67
2022-10-09T21:20:39.041Z,6.78
2022-10-09T21:23:05.886Z,7.31
2022-10-09T21:25:32.941Z,8.00
2022-10-09T21:27:59.276Z,7.35
2022-10-09T21:30:26.229Z,6.96
2022-10-09T21:32:52.899Z,7.99
2022-10-09T21:35:19.513Z,7.61
2022-10-09T21:37:46.021Z,7.14
2022-10-09T21:40:12.374Z,7.78
2022-10-09T21:42:38.765Z,5.27
2022-10-09T21:45:05.635Z,7.99
2022-10-09T21:47:32.017Z,7.99
2022-10-09T21:49:58.362Z,7.58
2022-10-09T21:52:24.697Z,7.54
2022-10-09T21:54:51.142Z,7.22
2022-10-09T21:57:17.489Z,7.07
2022-10-09T21:59:43.851Z,6.48
2022-10-09T22:02:10.184Z,7.61
2022-10-09T22:04:36.680Z,6.98
2022-10-09T22:07:05.272Z,7.80
2022-10-09T22:09:31.648Z,7.14
2022-10-09T22:11:58.087Z,7.44
2022-10-09T22:14:24.510Z,7.42
2022-10-09T22:16:50.868Z,7.31
2022-10-09T22:19:18.649Z,7.14
2022-10-09T22:21:45.004Z,7.65
2022-10-09T22:24:12.952Z,6.84
2022-10-09T22:26:39.842Z,5.99
2022-10-09T22:29:06.421Z,6.98
2022-10-09T22:31:32.853Z,7.14
2022-10-09T22:34:01.442Z,6.46
2022-10-09T22:36:30.403Z,7.31
2022-10-09T22:38:58.674Z,7.42
2022-10-09T22:41:28.852Z,6.21
2022-10-09T22:44:00.338Z,6.79
2022-10-09T22:46:29.246Z,7.18
2022-10-09T22:48:55.729Z,6.03
2022-10-09T22:51:23.940Z,7.03
2022-10-09T22:53:50.374Z,6.94
2022-10-09T22:56:38.538Z,6.86
2022-10-09T22:59:06.999Z,6.31
2022-10-09T23:01:40.264Z,6.27
2022-10-09T23:04:10.418Z,6.67
2022-10-09T23:06:37.200Z,6.27
2022-10-09T23:09:05.914Z,6.27
2022-10-09T23:11:32.332Z,5.90
2022-10-09T23:13:59.962Z,5.52
2022-10-09T23:16:28.630Z,4.95
2022-10-09T23:18:57.776Z,6.13
2022-10-09T23:21:24.599Z,5.34
2022-10-09T23:23:51.913Z,6.07
2022-10-09T23:26:21.290Z,6.16
2022-10-09T23:28:56.581Z,4.83
2022-10-09T23:31:23.789Z,5.02
2022-10-09T23:33:50.318Z,6.27
2022-10-09T23:36:20.211Z,5.93
2022-10-09T23:38:47.094Z,5.73
2022-10-09T23:41:16.370Z,6.02
2022-10-09T23:43:44.134Z,5.74
2022-10-09T23:46:14.365Z,6.16
2022-10-09T23:48:41.433Z,5.25
2022-10-09T23:51:10.832Z,5.62
2022-10-09T23:53:37.705Z,5.60
2022-10-09T23:56:25.419Z,5.79
2022-10-09T23:58:53.203Z,5.67
